Time;durP1;ratioP1;P1;durP2;ratioP2;P2;SDS_P1;SDS_P2;PMS_P1;PMS_P2;Temp;Humidity;BMP_temperature;BMP_pressure;BME280_temperature;BME280_humidity;BME280_pressure;Samples;Min_cycle;Max_cycle;Signal;HPM_P1;HPM_P2
2022/11/05 00:10:37;;;;;;;38.05;18.85;;;;;;;;;;4971173;28;20395;-61
2022/11/05 00:18:33;;;;;;;30.48;16.65;;;;;;;;;;4970037;28;20440;-61
2022/11/05 00:20:58;;;;;;;41.22;17.98;;;;;;;;;;4969834;28;20410;-61
2022/11/05 00:26:10;;;;;;;45.13;19.17;;;;;;;;;;4970100;28;20381;-61
2022/11/05 00:28:36;;;;;;;39.78;18.38;;;;;;;;;;4969963;28;20436;-62
2022/11/05 00:31:08;;;;;;;39.10;18.25;;;;;;;;;;4970661;28;20421;-61
2022/11/05 00:33:34;;;;;;;32.38;18.10;;;;;;;;;;4970277;28;20413;-61
2022/11/05 00:36:01;;;;;;;52.97;22.60;;;;;;;;;;4970084;28;20487;-61
2022/11/05 00:38:28;;;;;;;54.05;23.13;;;;;;;;;;4969849;28;20488;-61
2022/11/05 00:40:53;;;;;;;49.78;22.75;;;;;;;;;;4969758;28;20436;-61
2022/11/05 00:46:02;;;;;;;45.30;21.55;;;;;;;;;;4969491;28;20567;-61
2022/11/05 00:51:12;;;;;;;40.67;19.98;;;;;;;;;;4970409;28;20507;-61
2022/11/05 00:53:37;;;;;;;41.85;19.42;;;;;;;;;;4969578;28;20483;-61
2022/11/05 00:56:02;;;;;;;33.13;18.58;;;;;;;;;;4969729;28;20444;-60
2022/11/05 00:58:28;;;;;;;34.90;17.92;;;;;;;;;;4967897;28;20031;-61
2022/11/05 01:00:55;;;;;;;36.17;17.98;;;;;;;;;;4967838;28;20037;-61
2022/11/05 01:03:29;;;;;;;25.67;16.90;;;;;;;;;;5000038;28;20511;-61
2022/11/05 01:05:56;;;;;;;32.70;16.92;;;;;;;;;;4989086;28;20447;-61
2022/11/05 01:08:23;;;;;;;34.03;17.08;;;;;;;;;;4989121;28;20526;-61
2022/11/05 01:10:55;;;;;;;31.92;14.55;;;;;;;;;;4989729;28;20333;-61
2022/11/05 01:13:26;;;;;;;30.33;16.13;;;;;;;;;;4989386;28;20082;-61
2022/11/05 01:15:52;;;;;;;31.92;15.63;;;;;;;;;;4988881;28;20056;-61
2022/11/05 01:18:19;;;;;;;28.98;14.35;;;;;;;;;;4988707;28;20029;-61
2022/11/05 01:20:44;;;;;;;22.20;13.32;;;;;;;;;;4989793;28;20439;-61
2022/11/05 01:23:10;;;;;;;23.85;11.85;;;;;;;;;;4970728;28;20428;-61
2022/11/05 01:25:35;;;;;;;19.05;10.88;;;;;;;;;;4988784;28;20107;-61
2022/11/05 01:28:02;;;;;;;15.95;9.23;;;;;;;;;;4989660;28;20550;-60
2022/11/05 01:30:27;;;;;;;15.10;9.05;;;;;;;;;;4988620;28;20348;-61
2022/11/05 01:32:52;;;;;;;19.55;9.20;;;;;;;;;;4988703;28;20408;-61
2022/11/05 01:35:18;;;;;;;21.58;9.30;;;;;;;;;;4988764;28;20452;-61
2022/11/05 01:37:44;;;;;;;16.52;8.43;;;;;;;;;;4988879;28;20446;-61
2022/11/05 01:40:12;;;;;;;18.42;8.05;;;;;;;;;;4988697;28;20479;-61
2022/11/05 01:42:37;;;;;;;14.68;8.82;;;;;;;;;;4989097;28;20033;-61
2022/11/05 01:45:05;;;;;;;17.15;7.20;;;;;;;;;;4988295;28;20063;-61
2022/11/05 01:47:46;;;;;;;13.93;6.85;;;;;;;;;;4986951;28;20531;-61
2022/11/05 01:50:23;;;;;;;15.40;7.38;;;;;;;;;;4989428;28;20432;-61
2022/11/05 01:52:51;;;;;;;14.30;6.72;;;;;;;;;;4986849;28;20356;-61
2022/11/05 01:55:23;;;;;;;15.32;7.38;;;;;;;;;;4988603;28;20024;-61
2022/11/05 01:57:48;;;;;;;12.80;6.82;;;;;;;;;;4988211;28;20423;-61
2022/11/05 02:00:15;;;;;;;10.68;5.60;;;;;;;;;;4971242;28;20361;-61
2022/11/05 02:02:41;;;;;;;13.80;6.97;;;;;;;;;;4988925;28;20041;-61
2022/11/05 02:05:08;;;;;;;17.50;6.88;;;;;;;;;;4988597;28;20476;-61
2022/11/05 02:07:33;;;;;;;13.65;6.57;;;;;;;;;;4989167;28;20112;-61
2022/11/05 02:10:09;;;;;;;10.70;5.50;;;;;;;;;;4988186;28;20082;-61
2022/11/05 02:12:36;;;;;;;7.20;4.60;;;;;;;;;;4988163;28;20420;-61
2022/11/05 02:15:02;;;;;;;11.88;5.80;;;;;;;;;;4988258;28;20497;-61
2022/11/05 02:17:38;;;;;;;9.45;5.00;;;;;;;;;;4988274;28;20440;-61
2022/11/05 02:20:28;;;;;;;10.90;5.13;;;;;;;;;;4988147;28;20399;-61
2022/11/05 02:23:12;;;;;;;11.70;4.90;;;;;;;;;;4988472;28;20472;-61
2022/11/05 02:26:08;;;;;;;12.10;5.80;;;;;;;;;;4987745;28;20056;-62
2022/11/05 02:28:58;;;;;;;7.30;4.68;;;;;;;;;;4990028;28;20375;-60
2022/11/05 02:31:42;;;;;;;7.55;4.20;;;;;;;;;;4991735;28;20441;-61
2022/11/05 02:34:26;;;;;;;6.95;4.45;;;;;;;;;;4974785;28;20427;-61
2022/11/05 02:36:54;;;;;;;7.07;4.13;;;;;;;;;;4992136;28;20351;-61
2022/11/05 02:39:34;;;;;;;7.45;4.40;;;;;;;;;;4992077;28;20450;-61
2022/11/05 02:42:11;;;;;;;5.68;4.07;;;;;;;;;;4991496;28;20383;-61
2022/11/05 02:44:37;;;;;;;6.07;3.70;;;;;;;;;;4991433;28;20383;-61
2022/11/05 02:47:30;;;;;;;6.15;3.15;;;;;;;;;;4991609;28;20446;-61
2022/11/05 02:50:10;;;;;;;4.65;3.40;;;;;;;;;;4991254;28;20440;-61
2022/11/05 02:53:00;;;;;;;7.30;3.85;;;;;;;;;;4993403;28;20451;-61
2022/11/05 02:55:30;;;;;;;5.95;3.78;;;;;;;;;;4992001;28;20434;-61
2022/11/05 02:57:58;;;;;;;5.50;3.67;;;;;;;;;;4973392;28;20430;-61
2022/11/05 03:00:40;;;;;;;5.63;4.20;;;;;;;;;;4992527;28;20431;-62
2022/11/05 03:03:15;;;;;;;5.97;3.20;;;;;;;;;;4973027;28;20162;-61
2022/11/05 03:06:08;;;;;;;6.30;4.10;;;;;;;;;;4973204;28;20443;-61
2022/11/05 03:09:02;;;;;;;5.43;3.50;;;;;;;;;;4991264;28;20432;-62
2022/11/05 03:11:30;;;;;;;6.32;3.70;;;;;;;;;;4993115;28;20371;-61
2022/11/05 03:14:23;;;;;;;5.60;3.92;;;;;;;;;;4990038;28;20443;-61
2022/11/05 03:16:55;;;;;;;4.88;3.65;;;;;;;;;;4973249;28;20375;-61
2022/11/05 03:19:35;;;;;;;6.20;3.88;;;;;;;;;;4991002;28;20405;-61
2022/11/05 03:22:04;;;;;;;6.63;3.72;;;;;;;;;;4990079;28;20104;-61
2022/11/05 03:24:32;;;;;;;5.35;3.72;;;;;;;;;;4972725;28;20348;-61
2022/11/05 03:27:11;;;;;;;4.55;3.38;;;;;;;;;;4973942;28;20462;-61
2022/11/05 03:29:41;;;;;;;3.83;2.90;;;;;;;;;;4973073;28;20028;-61
2022/11/05 03:32:07;;;;;;;5.68;3.58;;;;;;;;;;4989029;28;20494;-60
2022/11/05 03:34:37;;;;;;;3.90;3.22;;;;;;;;;;4990609;28;20402;-61
2022/11/05 03:37:04;;;;;;;4.20;2.75;;;;;;;;;;4972740;28;20191;-60
2022/11/05 03:39:32;;;;;;;6.72;2.97;;;;;;;;;;4989220;28;20329;-61
2022/11/05 03:41:58;;;;;;;7.00;3.47;;;;;;;;;;4971797;28;20383;-61
2022/11/05 03:44:28;;;;;;;6.13;2.83;;;;;;;;;;4988898;28;20407;-61
2022/11/05 03:46:58;;;;;;;6.72;3.22;;;;;;;;;;4990692;28;20452;-61
2022/11/05 03:49:28;;;;;;;6.50;3.72;;;;;;;;;;4991281;28;20462;-61
2022/11/05 03:52:17;;;;;;;4.90;3.47;;;;;;;;;;4991866;28;20451;-61
2022/11/05 03:54:43;;;;;;;4.50;2.63;;;;;;;;;;4965405;28;20360;-61
2022/11/05 03:57:19;;;;;;;5.47;3.22;;;;;;;;;;4990121;28;20370;-61
2022/11/05 03:59:46;;;;;;;5.18;2.78;;;;;;;;;;4972454;28;20086;-60
2022/11/05 04:02:14;;;;;;;3.95;2.75;;;;;;;;;;4990118;28;20480;-61
2022/11/05 04:04:40;;;;;;;4.63;2.75;;;;;;;;;;4989920;28;20106;-61
2022/11/05 04:15:17;;;;;;;4.38;2.63;;;;;;;;;;4989887;28;20107;-61
2022/11/05 04:17:42;;;;;;;5.10;2.90;;;;;;;;;;4990743;28;20041;-61
2022/11/05 04:25:49;;;;;;;3.42;2.55;;;;;;;;;;4990994;28;20332;-61
2022/11/05 04:28:14;;;;;;;3.20;2.40;;;;;;;;;;4989614;28;20344;-61
2022/11/05 04:30:39;;;;;;;3.80;2.28;;;;;;;;;;4989493;28;20440;-62
2022/11/05 04:33:07;;;;;;;3.28;2.40;;;;;;;;;;4989702;28;20321;-61
2022/11/05 04:35:37;;;;;;;2.67;1.90;;;;;;;;;;4989267;28;20024;-61
2022/11/05 04:38:04;;;;;;;3.33;2.22;;;;;;;;;;4989502;28;20459;-61
2022/11/05 04:40:30;;;;;;;2.72;2.08;;;;;;;;;;4989281;28;20321;-60
2022/11/05 04:42:55;;;;;;;5.68;2.30;;;;;;;;;;4989681;28;20100;-61
2022/11/05 04:45:26;;;;;;;2.75;2.45;;;;;;;;;;4989508;28;20087;-61
2022/11/05 04:47:52;;;;;;;2.90;2.25;;;;;;;;;;4989656;28;20431;-60
2022/11/05 04:50:17;;;;;;;4.07;2.40;;;;;;;;;;4989446;28;20418;-61
2022/11/05 04:52:42;;;;;;;2.20;1.85;;;;;;;;;;4988685;28;20473;-61
2022/11/05 04:55:08;;;;;;;2.90;2.08;;;;;;;;;;4971659;28;20029;-61
2022/11/05 04:57:34;;;;;;;2.55;1.75;;;;;;;;;;4990113;28;20498;-61
2022/11/05 04:59:59;;;;;;;4.13;2.63;;;;;;;;;;4971384;28;20048;-61
2022/11/05 05:02:24;;;;;;;4.55;1.85;;;;;;;;;;4988683;28;20333;-61
2022/11/05 05:04:50;;;;;;;3.20;2.28;;;;;;;;;;4989607;28;20028;-61
2022/11/05 05:07:15;;;;;;;4.00;2.53;;;;;;;;;;4988926;28;20551;-60
2022/11/05 05:09:40;;;;;;;4.53;2.47;;;;;;;;;;4989319;28;20167;-61
2022/11/05 05:12:06;;;;;;;4.45;2.25;;;;;;;;;;4990506;28;20339;-61
2022/11/05 05:14:32;;;;;;;2.72;2.20;;;;;;;;;;4989350;28;20025;-61
2022/11/05 05:16:57;;;;;;;2.88;2.10;;;;;;;;;;4988815;28;20450;-61
2022/11/05 05:19:23;;;;;;;3.45;2.50;;;;;;;;;;4989226;28;20372;-61
2022/11/05 05:21:49;;;;;;;3.45;2.50;;;;;;;;;;4971297;28;20032;-61
2022/11/05 05:24:18;;;;;;;3.08;2.33;;;;;;;;;;4988459;28;20493;-61
2022/11/05 05:26:46;;;;;;;3.50;2.47;;;;;;;;;;4988487;28;20467;-61
2022/11/05 05:29:12;;;;;;;4.13;3.65;;;;;;;;;;4988952;28;20428;-61
2022/11/05 05:31:37;;;;;;;6.00;2.50;;;;;;;;;;4988941;28;20305;-60
2022/11/05 05:34:04;;;;;;;5.72;3.33;;;;;;;;;;4988318;28;20417;-60
2022/11/05 05:36:29;;;;;;;5.25;3.00;;;;;;;;;;4989988;28;20021;-61
2022/11/05 05:38:54;;;;;;;5.50;3.42;;;;;;;;;;4988436;28;20083;-61
2022/11/05 05:41:20;;;;;;;8.10;3.20;;;;;;;;;;4988706;28;20337;-61
2022/11/05 05:43:45;;;;;;;4.15;3.33;;;;;;;;;;4988927;28;20400;-61
2022/11/05 05:46:13;;;;;;;14.05;4.90;;;;;;;;;;4988441;28;20028;-61
2022/11/05 05:48:38;;;;;;;9.65;4.78;;;;;;;;;;4988436;28;20416;-61
2022/11/05 05:51:09;;;;;;;8.07;4.20;;;;;;;;;;4988313;28;20376;-61
2022/11/05 05:53:34;;;;;;;8.38;4.43;;;;;;;;;;4988285;28;20523;-61
2022/11/05 05:56:00;;;;;;;8.18;5.63;;;;;;;;;;4988673;28;20432;-61
2022/11/05 05:58:29;;;;;;;10.95;5.05;;;;;;;;;;4989305;28;20421;-60
2022/11/05 06:00:59;;;;;;;9.25;4.75;;;;;;;;;;4988308;28;20129;-61
2022/11/05 06:03:24;;;;;;;8.88;4.82;;;;;;;;;;4988231;28;20332;-61
2022/11/05 06:05:49;;;;;;;10.20;4.88;;;;;;;;;;4991783;28;20332;-61
2022/11/05 06:08:15;;;;;;;9.50;5.20;;;;;;;;;;4992989;28;20336;-60
2022/11/05 06:10:40;;;;;;;9.35;4.47;;;;;;;;;;4992218;28;20340;-62
2022/11/05 06:13:05;;;;;;;9.13;4.82;;;;;;;;;;4993887;28;20432;-61
2022/11/05 06:15:31;;;;;;;8.35;4.53;;;;;;;;;;4992432;28;20458;-61
2022/11/05 06:17:56;;;;;;;9.60;4.97;;;;;;;;;;4991822;28;20428;-61
2022/11/05 06:20:21;;;;;;;7.40;5.20;;;;;;;;;;4992134;28;20499;-61
2022/11/05 06:22:56;;;;;;;7.38;5.15;;;;;;;;;;4991457;28;20443;-61
2022/11/05 06:25:22;;;;;;;6.28;4.28;;;;;;;;;;4991876;28;20463;-61
2022/11/05 06:27:47;;;;;;;6.53;4.20;;;;;;;;;;4992001;28;20495;-61
2022/11/05 06:30:13;;;;;;;10.68;5.43;;;;;;;;;;4993575;28;20436;-61
2022/11/05 06:32:39;;;;;;;7.07;4.35;;;;;;;;;;4992142;28;20539;-61
2022/11/05 06:35:04;;;;;;;8.15;5.07;;;;;;;;;;4991984;28;20415;-61
2022/11/05 06:37:32;;;;;;;8.65;5.35;;;;;;;;;;4992608;28;20475;-61
2022/11/05 06:39:57;;;;;;;7.78;4.75;;;;;;;;;;4992428;28;20506;-61
2022/11/05 06:42:23;;;;;;;6.13;4.00;;;;;;;;;;4991978;28;20359;-61
2022/11/05 06:44:48;;;;;;;7.28;4.68;;;;;;;;;;4991209;28;20364;-61
2022/11/05 06:47:13;;;;;;;8.95;4.80;;;;;;;;;;4992551;28;20029;-61
2022/11/05 06:49:39;;;;;;;7.13;3.97;;;;;;;;;;4991606;28;20428;-61
2022/11/05 06:52:04;;;;;;;8.10;5.05;;;;;;;;;;4991612;28;20425;-61
2022/11/05 06:54:29;;;;;;;10.10;5.30;;;;;;;;;;4991848;28;20422;-61
2022/11/05 06:56:55;;;;;;;11.80;6.07;;;;;;;;;;4990989;28;20444;-61
2022/11/05 06:59:20;;;;;;;12.10;7.07;;;;;;;;;;4991547;28;20128;-61
2022/11/05 07:01:45;;;;;;;11.70;6.55;;;;;;;;;;4991081;28;20513;-61
2022/11/05 07:04:11;;;;;;;8.13;5.32;;;;;;;;;;4991122;28;20471;-61
2022/11/05 07:06:36;;;;;;;8.90;5.20;;;;;;;;;;4991658;28;20367;-61
2022/11/05 07:09:02;;;;;;;11.25;5.70;;;;;;;;;;4973452;28;20404;-61
2022/11/05 07:11:27;;;;;;;7.35;5.15;;;;;;;;;;4992998;28;20451;-61
2022/11/05 07:13:52;;;;;;;8.63;4.93;;;;;;;;;;4990950;28;20363;-61
2022/11/05 07:16:17;;;;;;;7.97;4.80;;;;;;;;;;4990122;28;20431;-61
2022/11/05 07:18:43;;;;;;;11.13;5.05;;;;;;;;;;4990833;28;20432;-62
2022/11/05 07:21:08;;;;;;;8.85;5.53;;;;;;;;;;4991541;28;20420;-61
2022/11/05 07:23:33;;;;;;;8.95;5.28;;;;;;;;;;4990860;28;20443;-61
2022/11/05 07:25:59;;;;;;;8.38;5.88;;;;;;;;;;4990700;28;20489;-61
2022/11/05 07:28:24;;;;;;;7.05;5.50;;;;;;;;;;4990508;28;20404;-61
2022/11/05 07:30:50;;;;;;;7.53;4.85;;;;;;;;;;4991740;28;20051;-62
2022/11/05 07:33:15;;;;;;;9.05;5.80;;;;;;;;;;4990805;28;20616;-61
2022/11/05 07:35:40;;;;;;;6.88;5.47;;;;;;;;;;4990958;28;20348;-61
2022/11/05 07:38:07;;;;;;;6.22;4.57;;;;;;;;;;4990838;28;20494;-61
2022/11/05 07:40:32;;;;;;;6.70;5.10;;;;;;;;;;4991126;28;20359;-61
2022/11/05 07:42:59;;;;;;;6.80;5.18;;;;;;;;;;4990305;28;20424;-61
2022/11/05 07:45:26;;;;;;;10.63;6.68;;;;;;;;;;4992207;28;20347;-61
2022/11/05 07:47:54;;;;;;;11.23;7.07;;;;;;;;;;4990942;28;20494;-61
2022/11/05 07:50:21;;;;;;;9.27;6.53;;;;;;;;;;4990593;28;20356;-61
2022/11/05 07:52:47;;;;;;;9.10;6.18;;;;;;;;;;4990871;28;20412;-61
2022/11/05 07:55:13;;;;;;;7.75;5.63;;;;;;;;;;4990443;28;20340;-60
2022/11/05 07:57:40;;;;;;;9.45;6.60;;;;;;;;;;4990044;28;20392;-61
2022/11/05 08:00:09;;;;;;;9.02;5.97;;;;;;;;;;4989964;28;20437;-61
2022/11/05 08:02:34;;;;;;;8.00;5.53;;;;;;;;;;4972672;28;20478;-61
2022/11/05 08:04:59;;;;;;;8.88;6.03;;;;;;;;;;4989787;28;20483;-61
2022/11/05 08:07:25;;;;;;;9.18;5.63;;;;;;;;;;4990228;28;20478;-61
2022/11/05 08:09:50;;;;;;;9.85;6.70;;;;;;;;;;4989908;28;20408;-61
2022/11/05 08:12:15;;;;;;;19.27;6.93;;;;;;;;;;4990172;28;20433;-61
2022/11/05 08:14:40;;;;;;;12.88;7.20;;;;;;;;;;4990914;28;20427;-61
2022/11/05 08:17:06;;;;;;;10.68;6.78;;;;;;;;;;4990467;28;20357;-61
2022/11/05 08:19:31;;;;;;;12.77;7.47;;;;;;;;;;4990041;28;20329;-61
2022/11/05 08:21:56;;;;;;;9.18;7.45;;;;;;;;;;4989359;28;20413;-61
2022/11/05 08:24:22;;;;;;;12.90;7.78;;;;;;;;;;4991493;28;20370;-61
2022/11/05 08:26:47;;;;;;;11.20;6.45;;;;;;;;;;4988745;28;20312;-61
2022/11/05 08:29:12;;;;;;;8.18;6.03;;;;;;;;;;4989462;28;20045;-62
2022/11/05 08:31:38;;;;;;;6.97;4.85;;;;;;;;;;4990759;28;20427;-62
2022/11/05 08:34:03;;;;;;;7.32;5.45;;;;;;;;;;4990182;28;20428;-61
2022/11/05 08:36:28;;;;;;;8.40;5.00;;;;;;;;;;4989382;28;20033;-62
2022/11/05 08:38:54;;;;;;;9.35;6.15;;;;;;;;;;4989174;28;20491;-61
2022/11/05 08:41:19;;;;;;;9.90;6.22;;;;;;;;;;4989240;28;20431;-61
2022/11/05 08:43:44;;;;;;;11.00;6.07;;;;;;;;;;4989470;28;20515;-63
2022/11/05 08:46:10;;;;;;;10.95;6.97;;;;;;;;;;4989664;28;20485;-61
2022/11/05 08:48:35;;;;;;;9.50;6.88;;;;;;;;;;4990233;28;20028;-61
2022/11/05 08:51:00;;;;;;;8.93;6.28;;;;;;;;;;4989127;28;20478;-61
2022/11/05 08:53:26;;;;;;;9.40;4.97;;;;;;;;;;4988918;28;20028;-61
2022/11/05 08:55:51;;;;;;;10.02;7.07;;;;;;;;;;4989900;28;20439;-61
2022/11/05 08:58:17;;;;;;;7.88;5.30;;;;;;;;;;4988945;28;20055;-61
2022/11/05 09:00:47;;;;;;;8.75;5.25;;;;;;;;;;4981421;28;20494;-61
2022/11/05 09:03:12;;;;;;;9.75;6.10;;;;;;;;;;4969211;28;20526;-62
2022/11/05 09:05:40;;;;;;;8.07;5.72;;;;;;;;;;4968467;28;20360;-61
2022/11/05 09:08:06;;;;;;;7.15;5.95;;;;;;;;;;4969420;28;20416;-61
2022/11/05 09:10:32;;;;;;;7.82;5.68;;;;;;;;;;4968985;28;20441;-62
2022/11/05 09:12:57;;;;;;;15.88;5.00;;;;;;;;;;4968737;28;20464;-61
2022/11/05 09:15:23;;;;;;;7.80;5.22;;;;;;;;;;4968889;28;20472;-61
2022/11/05 09:17:49;;;;;;;10.82;4.78;;;;;;;;;;4968983;28;20547;-61
2022/11/05 09:20:14;;;;;;;7.30;4.88;;;;;;;;;;4968890;28;20352;-61
2022/11/05 09:22:39;;;;;;;13.30;6.20;;;;;;;;;;4968646;28;20095;-62
2022/11/05 09:25:05;;;;;;;10.55;5.95;;;;;;;;;;4968535;28;20378;-61
2022/11/05 09:27:31;;;;;;;8.20;4.85;;;;;;;;;;4969272;28;20345;-62
2022/11/05 09:29:56;;;;;;;9.57;4.53;;;;;;;;;;4969331;28;20370;-62
2022/11/05 09:32:22;;;;;;;6.63;4.25;;;;;;;;;;4969046;28;20442;-61
2022/11/05 09:34:48;;;;;;;11.05;5.03;;;;;;;;;;4969261;28;20353;-61
2022/11/05 09:37:14;;;;;;;6.30;4.50;;;;;;;;;;4969541;28;20340;-62
2022/11/05 09:39:39;;;;;;;6.53;4.20;;;;;;;;;;4968706;28;20122;-61
2022/11/05 09:42:10;;;;;;;6.88;4.63;;;;;;;;;;4968666;28;20356;-61
2022/11/05 09:44:46;;;;;;;7.32;4.70;;;;;;;;;;4966757;28;20440;-61
2022/11/05 09:47:16;;;;;;;8.02;4.38;;;;;;;;;;4968690;28;20425;-62
2022/11/05 09:49:47;;;;;;;7.53;4.53;;;;;;;;;;4969024;28;20437;-61
2022/11/05 09:52:17;;;;;;;7.65;4.60;;;;;;;;;;4968969;28;20048;-61
2022/11/05 09:54:44;;;;;;;5.32;3.85;;;;;;;;;;4966825;28;20352;-61
2022/11/05 09:57:13;;;;;;;6.85;4.05;;;;;;;;;;4968594;28;20527;-62
2022/11/05 09:59:48;;;;;;;7.63;4.43;;;;;;;;;;4966880;28;20471;-62
2022/11/05 10:02:26;;;;;;;9.15;4.55;;;;;;;;;;4966966;28;20464;-61
2022/11/05 10:04:56;;;;;;;5.05;4.03;;;;;;;;;;4968284;28;20322;-61
2022/11/05 10:07:24;;;;;;;5.80;4.03;;;;;;;;;;4968235;28;20325;-61
2022/11/05 10:09:57;;;;;;;6.38;4.40;;;;;;;;;;4968793;28;20478;-62
2022/11/05 10:12:29;;;;;;;7.35;4.40;;;;;;;;;;4967084;28;20425;-61
2022/11/05 10:15:12;;;;;;;9.75;4.25;;;;;;;;;;4966649;28;20443;-61
2022/11/05 10:17:39;;;;;;;7.88;4.43;;;;;;;;;;4968724;28;20483;-62
2022/11/05 10:20:19;;;;;;;6.13;4.00;;;;;;;;;;4966381;28;20350;-61
2022/11/05 10:22:45;;;;;;;5.03;3.55;;;;;;;;;;4966323;28;20068;-61
2022/11/05 10:25:18;;;;;;;6.20;3.55;;;;;;;;;;4968025;28;20033;-62
2022/11/05 10:27:50;;;;;;;10.60;3.70;;;;;;;;;;4968979;28;20171;-62
2022/11/05 10:30:16;;;;;;;7.57;3.80;;;;;;;;;;4968343;28;20144;-61
2022/11/05 10:32:42;;;;;;;7.78;4.07;;;;;;;;;;4968505;28;20049;-61
2022/11/05 10:35:12;;;;;;;8.10;4.03;;;;;;;;;;4966817;28;20095;-62
2022/11/05 10:37:37;;;;;;;7.10;3.85;;;;;;;;;;4967028;28;20440;-61
2022/11/05 10:40:15;;;;;;;7.28;3.50;;;;;;;;;;4970177;28;20381;-62
2022/11/05 10:43:14;;;;;;;13.45;3.88;;;;;;;;;;4967772;28;20408;-61
2022/11/05 10:46:09;;;;;;;5.43;3.08;;;;;;;;;;4935026;28;20053;-62
2022/11/05 10:48:53;;;;;;;7.47;3.60;;;;;;;;;;4966612;28;20433;-61
2022/11/05 10:51:19;;;;;;;10.82;5.40;;;;;;;;;;4970056;28;20316;-62
2022/11/05 10:53:53;;;;;;;5.68;3.20;;;;;;;;;;4972408;28;20029;-62
2022/11/05 10:56:29;;;;;;;7.85;3.90;;;;;;;;;;4969797;28;20048;-61
2022/11/05 10:58:57;;;;;;;13.45;5.65;;;;;;;;;;4971668;28;20399;-61
2022/11/05 11:01:23;;;;;;;17.60;7.03;;;;;;;;;;4971463;28;20475;-62
2022/11/05 11:03:51;;;;;;;14.15;6.55;;;;;;;;;;4971363;28;20290;-61
2022/11/05 11:06:22;;;;;;;16.15;6.57;;;;;;;;;;4971404;28;20363;-61
2022/11/05 11:08:49;;;;;;;7.38;4.63;;;;;;;;;;4969504;28;20440;-61
2022/11/05 11:11:34;;;;;;;15.40;7.57;;;;;;;;;;4970005;28;20392;-61
2022/11/05 11:14:00;;;;;;;5.95;3.95;;;;;;;;;;4972243;28;20455;-61
2022/11/05 11:16:27;;;;;;;5.38;3.38;;;;;;;;;;4971402;28;20425;-62
2022/11/05 11:18:55;;;;;;;7.00;3.95;;;;;;;;;;4971292;28;20503;-61
2022/11/05 11:21:22;;;;;;;6.75;3.75;;;;;;;;;;4970749;28;20480;-61
2022/11/05 11:24:01;;;;;;;16.23;6.93;;;;;;;;;;4972856;28;20559;-61
2022/11/05 11:26:32;;;;;;;8.55;4.07;;;;;;;;;;4970511;28;20460;-61
2022/11/05 11:29:05;;;;;;;4.70;3.08;;;;;;;;;;4969421;28;20387;-61
2022/11/05 11:31:32;;;;;;;7.93;3.45;;;;;;;;;;4971196;28;20460;-61
2022/11/05 11:34:28;;;;;;;7.80;3.80;;;;;;;;;;4969198;28;20099;-61
2022/11/05 11:37:03;;;;;;;5.95;3.63;;;;;;;;;;4956841;28;20437;-61
2022/11/05 11:39:29;;;;;;;7.63;4.47;;;;;;;;;;4969078;28;20432;-62
2022/11/05 11:42:19;;;;;;;7.32;4.55;;;;;;;;;;4970609;28;20348;-61
2022/11/05 11:44:46;;;;;;;13.15;7.28;;;;;;;;;;4971345;28;20145;-63
2022/11/05 11:47:14;;;;;;;9.15;4.60;;;;;;;;;;4971055;28;20328;-62
2022/11/05 11:49:51;;;;;;;9.00;3.63;;;;;;;;;;4971327;28;20041;-61
2022/11/05 11:52:25;;;;;;;10.90;5.82;;;;;;;;;;4971178;28;20405;-62
2022/11/05 11:54:51;;;;;;;5.57;3.20;;;;;;;;;;4971938;28;20347;-61
2022/11/05 11:57:23;;;;;;;9.88;4.78;;;;;;;;;;4970557;28;20529;-61
2022/11/05 11:59:50;;;;;;;5.75;3.38;;;;;;;;;;4970357;28;20494;-61
2022/11/05 12:02:44;;;;;;;13.25;6.30;;;;;;;;;;4969371;28;20380;-61
2022/11/05 12:05:35;;;;;;;17.50;6.65;;;;;;;;;;4971224;28;20464;-61
2022/11/05 12:08:29;;;;;;;7.78;4.40;;;;;;;;;;4967582;28;20060;-62
2022/11/05 12:10:57;;;;;;;9.38;4.57;;;;;;;;;;4970266;28;20356;-62
2022/11/05 12:13:37;;;;;;;9.15;3.75;;;;;;;;;;4970062;28;20348;-62
2022/11/05 12:16:14;;;;;;;7.63;3.72;;;;;;;;;;4968127;28;20432;-62
2022/11/05 12:19:05;;;;;;;6.55;3.53;;;;;;;;;;4968382;28;20371;-61
2022/11/05 12:21:45;;;;;;;5.15;3.28;;;;;;;;;;4967864;28;20368;-62
2022/11/05 12:24:29;;;;;;;6.65;3.22;;;;;;;;;;4970537;28;20087;-61
2022/11/05 12:27:06;;;;;;;6.72;3.53;;;;;;;;;;4968256;28;20460;-66
2022/11/05 12:29:52;;;;;;;5.18;3.13;;;;;;;;;;4968492;28;20057;-61
2022/11/05 12:32:35;;;;;;;7.55;3.63;;;;;;;;;;4968867;28;20427;-61
2022/11/05 12:35:25;;;;;;;7.18;3.38;;;;;;;;;;4969044;28;20349;-62
2022/11/05 12:38:29;;;;;;;7.00;3.65;;;;;;;;;;4969829;28;20464;-61
2022/11/05 12:41:04;;;;;;;5.53;2.78;;;;;;;;;;4967854;28;20414;-62
2022/11/05 12:43:59;;;;;;;5.78;3.22;;;;;;;;;;4969682;28;20393;-62
2022/11/05 12:47:03;;;;;;;6.82;3.00;;;;;;;;;;4969493;28;20436;-61
2022/11/05 12:49:44;;;;;;;4.60;2.85;;;;;;;;;;4949548;28;20497;-61
2022/11/05 12:52:38;;;;;;;7.25;2.90;;;;;;;;;;4967722;28;20037;-62
2022/11/05 12:55:08;;;;;;;5.68;3.78;;;;;;;;;;4969343;28;20025;-61
2022/11/05 12:57:37;;;;;;;6.60;3.17;;;;;;;;;;4969947;28;20399;-62
2022/11/05 13:00:15;;;;;;;5.97;3.85;;;;;;;;;;4967999;28;20455;-61
2022/11/05 13:03:23;;;;;;;5.35;3.60;;;;;;;;;;4967097;28;20483;-62
2022/11/05 13:06:03;;;;;;;5.28;3.63;;;;;;;;;;4967621;28;20388;-62
2022/11/05 13:08:51;;;;;;;6.45;3.67;;;;;;;;;;4967035;28;20432;-62
2022/11/05 13:11:22;;;;;;;5.53;3.30;;;;;;;;;;4618755;28;10002263;-61
2022/11/05 13:14:00;;;;;;;5.03;3.80;;;;;;;;;;4959924;28;20357;-62
2022/11/05 13:16:31;;;;;;;6.93;4.20;;;;;;;;;;4967165;28;20510;-62
2022/11/05 13:19:04;;;;;;;5.50;3.42;;;;;;;;;;4967505;28;20054;-61
2022/11/05 13:21:30;;;;;;;4.70;3.53;;;;;;;;;;4969035;28;20364;-61
2022/11/05 13:24:02;;;;;;;8.07;4.20;;;;;;;;;;4968772;28;20387;-62
2022/11/05 13:26:36;;;;;;;6.85;4.00;;;;;;;;;;4967424;28;20092;-61
2022/11/05 13:29:06;;;;;;;4.65;3.53;;;;;;;;;;4967299;28;20556;-61
2022/11/05 13:31:46;;;;;;;6.95;4.30;;;;;;;;;;4967031;28;20334;-62
2022/11/05 13:34:12;;;;;;;6.43;4.70;;;;;;;;;;4968850;28;20322;-61
2022/11/05 13:39:54;;;;;;;7.32;3.80;;;;;;;;;;4967325;28;20408;-61
2022/11/05 13:42:38;;;;;;;6.18;3.55;;;;;;;;;;4966844;28;20394;-62
2022/11/05 13:45:28;;;;;;;6.22;3.75;;;;;;;;;;4968531;28;20479;-62
2022/11/05 13:48:25;;;;;;;6.30;3.35;;;;;;;;;;4968646;28;20095;-62
2022/11/05 13:51:09;;;;;;;14.32;4.82;;;;;;;;;;4966942;28;20393;-61
2022/11/05 13:54:06;;;;;;;5.57;3.72;;;;;;;;;;4969145;28;20417;-61
2022/11/05 13:56:47;;;;;;;13.32;5.15;;;;;;;;;;4966903;28;20053;-61
2022/11/05 13:59:31;;;;;;;8.10;4.63;;;;;;;;;;4968497;28;20417;-62
2022/11/05 14:02:02;;;;;;;8.40;4.30;;;;;;;;;;4968246;28;20545;-62
2022/11/05 14:04:31;;;;;;;8.52;4.78;;;;;;;;;;4967270;28;20037;-61
2022/11/05 14:07:19;;;;;;;7.50;4.50;;;;;;;;;;4968893;28;20025;-61
2022/11/05 14:09:47;;;;;;;9.85;5.47;;;;;;;;;;4970059;28;20360;-65
2022/11/05 14:12:50;;;;;;;7.28;4.63;;;;;;;;;;4966624;28;20356;-61
2022/11/05 14:15:27;;;;;;;8.13;4.88;;;;;;;;;;4958294;28;20038;-61
2022/11/05 14:17:57;;;;;;;7.80;4.93;;;;;;;;;;4967855;28;20163;-61
2022/11/05 14:20:31;;;;;;;7.25;4.50;;;;;;;;;;4968612;28;20384;-61
2022/11/05 14:23:24;;;;;;;9.30;5.18;;;;;;;;;;4968553;28;20425;-61
2022/11/05 14:25:50;;;;;;;8.63;5.70;;;;;;;;;;4969732;28;20341;-62
2022/11/05 14:28:33;;;;;;;11.55;5.90;;;;;;;;;;4971955;28;20337;-61
2022/11/05 14:30:59;;;;;;;10.50;5.82;;;;;;;;;;4972128;28;20452;-62
2022/11/05 14:33:24;;;;;;;8.25;5.10;;;;;;;;;;4970416;28;20425;-61
2022/11/05 14:35:51;;;;;;;10.13;5.75;;;;;;;;;;4972129;28;20364;-61
2022/11/05 14:38:19;;;;;;;12.93;5.65;;;;;;;;;;4971398;28;20429;-61
2022/11/05 14:40:45;;;;;;;10.75;5.90;;;;;;;;;;4970594;28;20371;-61
2022/11/05 14:43:13;;;;;;;12.38;7.75;;;;;;;;;;4969985;28;20376;-61
2022/11/05 14:45:51;;;;;;;13.00;7.47;;;;;;;;;;4971722;28;20483;-62
2022/11/05 14:48:39;;;;;;;12.75;5.43;;;;;;;;;;4971511;28;20474;-61
2022/11/05 14:51:26;;;;;;;28.85;10.40;;;;;;;;;;4971622;28;20361;-61
2022/11/05 14:54:17;;;;;;;13.60;7.18;;;;;;;;;;4971658;28;20410;-63
2022/11/05 14:56:56;;;;;;;11.52;6.40;;;;;;;;;;4969845;28;20353;-61
2022/11/05 14:59:24;;;;;;;13.23;7.30;;;;;;;;;;4971590;28;20495;-61
2022/11/05 15:01:49;;;;;;;19.77;8.35;;;;;;;;;;4977501;28;20452;-61
2022/11/05 15:04:14;;;;;;;17.90;8.10;;;;;;;;;;4990953;28;20482;-61
2022/11/05 15:07:02;;;;;;;9.68;5.80;;;;;;;;;;4991201;28;20464;-61
2022/11/05 15:09:33;;;;;;;8.55;5.20;;;;;;;;;;4990832;28;20482;-61
2022/11/05 15:12:21;;;;;;;13.07;6.28;;;;;;;;;;4973271;28;20048;-61
2022/11/05 15:15:12;;;;;;;8.65;5.57;;;;;;;;;;4976167;28;20079;-61
2022/11/05 15:17:43;;;;;;;11.75;6.10;;;;;;;;;;4953027;28;20036;-61
2022/11/05 15:20:13;;;;;;;10.50;5.82;;;;;;;;;;4990613;28;20395;-61
2022/11/05 15:22:41;;;;;;;11.07;5.05;;;;;;;;;;4992046;28;20383;-61
2022/11/05 15:25:18;;;;;;;8.30;5.05;;;;;;;;;;4990911;28;20025;-61
2022/11/05 15:28:24;;;;;;;9.95;5.13;;;;;;;;;;4991747;28;20463;-62
2022/11/05 15:31:01;;;;;;;14.27;5.70;;;;;;;;;;4946776;28;20475;-62
2022/11/05 15:33:27;;;;;;;12.68;6.60;;;;;;;;;;4990312;28;20505;-62
2022/11/05 15:35:52;;;;;;;12.23;6.90;;;;;;;;;;4990339;28;20420;-63
2022/11/05 15:38:35;;;;;;;14.63;6.82;;;;;;;;;;4989365;28;20499;-61
2022/11/05 15:41:12;;;;;;;10.02;5.55;;;;;;;;;;4990323;28;20444;-62
2022/11/05 15:43:45;;;;;;;17.35;6.90;;;;;;;;;;4972814;28;20466;-61